sensor_id;sensor_type;location;lat;lon;timestamp;P1;durP1;ratioP1;P2;durP2;ratioP2
787;SDS011;16074;42.708;23.312;2023-07-29T00:01:05;5.93;;;4.97;;
787;SDS011;16074;42.708;23.312;2023-07-29T00:03:35;4.97;;;4.57;;
787;SDS011;16074;42.708;23.312;2023-07-29T00:06:03;5.70;;;5.13;;
787;SDS011;16074;42.708;23.312;2023-07-29T00:08:31;4.83;;;4.53;;
787;SDS011;16074;42.708;23.312;2023-07-29T00:10:59;5.30;;;4.80;;
787;SDS011;16074;42.708;23.312;2023-07-29T00:13:28;5.37;;;5.00;;
787;SDS011;16074;42.708;23.312;2023-07-29T00:15:56;5.17;;;4.87;;
787;SDS011;16074;42.708;23.312;2023-07-29T00:18:24;5.10;;;4.77;;
787;SDS011;16074;42.708;23.312;2023-07-29T00:20:55;5.73;;;5.30;;
787;SDS011;16074;42.708;23.312;2023-07-29T00:23:24;5.30;;;5.00;;
787;SDS011;16074;42.708;23.312;2023-07-29T00:25:52;5.50;;;5.10;;
787;SDS011;16074;42.708;23.312;2023-07-29T00:28:21;4.87;;;4.57;;
787;SDS011;16074;42.708;23.312;2023-07-29T00:30:49;5.60;;;5.10;;
787;SDS011;16074;42.708;23.312;2023-07-29T00:33:20;5.77;;;4.67;;
787;SDS011;16074;42.708;23.312;2023-07-29T00:35:49;4.90;;;4.60;;
787;SDS011;16074;42.708;23.312;2023-07-29T00:38:19;5.57;;;5.17;;
787;SDS011;16074;42.708;23.312;2023-07-29T00:40:47;4.93;;;4.63;;
787;SDS011;16074;42.708;23.312;2023-07-29T00:43:16;5.37;;;4.97;;
787;SDS011;16074;42.708;23.312;2023-07-29T00:45:44;5.43;;;5.13;;
787;SDS011;16074;42.708;23.312;2023-07-29T00:48:13;5.80;;;4.97;;
787;SDS011;16074;42.708;23.312;2023-07-29T00:50:42;5.77;;;5.30;;
787;SDS011;16074;42.708;23.312;2023-07-29T00:53:11;6.07;;;5.67;;
787;SDS011;16074;42.708;23.312;2023-07-29T00:55:41;5.20;;;4.90;;
787;SDS011;16074;42.708;23.312;2023-07-29T00:58:09;5.70;;;5.20;;
787;SDS011;16074;42.708;23.312;2023-07-29T01:00:37;5.40;;;5.00;;
787;SDS011;16074;42.708;23.312;2023-07-29T01:03:06;5.60;;;5.20;;
787;SDS011;16074;42.708;23.312;2023-07-29T01:05:36;5.60;;;5.20;;
787;SDS011;16074;42.708;23.312;2023-07-29T01:08:16;4.67;;;4.40;;
787;SDS011;16074;42.708;23.312;2023-07-29T01:10:57;5.90;;;5.40;;
787;SDS011;16074;42.708;23.312;2023-07-29T01:13:33;5.20;;;4.90;;
787;SDS011;16074;42.708;23.312;2023-07-29T01:16:10;5.53;;;5.13;;
787;SDS011;16074;42.708;23.312;2023-07-29T01:18:45;5.83;;;5.33;;
787;SDS011;16074;42.708;23.312;2023-07-29T01:21:16;5.77;;;5.27;;
787;SDS011;16074;42.708;23.312;2023-07-29T01:23:46;5.57;;;5.17;;
787;SDS011;16074;42.708;23.312;2023-07-29T01:26:15;5.83;;;5.23;;
787;SDS011;16074;42.708;23.312;2023-07-29T01:28:43;5.70;;;5.23;;
787;SDS011;16074;42.708;23.312;2023-07-29T01:31:12;5.80;;;5.40;;
787;SDS011;16074;42.708;23.312;2023-07-29T01:33:45;5.70;;;5.30;;
787;SDS011;16074;42.708;23.312;2023-07-29T01:36:21;6.00;;;5.60;;
787;SDS011;16074;42.708;23.312;2023-07-29T01:38:54;5.43;;;4.93;;
787;SDS011;16074;42.708;23.312;2023-07-29T01:41:25;5.50;;;5.10;;
787;SDS011;16074;42.708;23.312;2023-07-29T01:43:55;6.97;;;6.10;;
787;SDS011;16074;42.708;23.312;2023-07-29T01:46:25;7.30;;;6.70;;
787;SDS011;16074;42.708;23.312;2023-07-29T01:48:53;5.60;;;5.10;;
787;SDS011;16074;42.708;23.312;2023-07-29T01:51:21;5.90;;;5.50;;
787;SDS011;16074;42.708;23.312;2023-07-29T01:53:50;5.60;;;5.07;;
787;SDS011;16074;42.708;23.312;2023-07-29T01:56:19;6.20;;;5.70;;
787;SDS011;16074;42.708;23.312;2023-07-29T01:58:52;5.27;;;4.97;;
787;SDS011;16074;42.708;23.312;2023-07-29T02:01:20;5.93;;;5.43;;
787;SDS011;16074;42.708;23.312;2023-07-29T02:03:49;6.07;;;5.57;;
787;SDS011;16074;42.708;23.312;2023-07-29T02:06:22;5.27;;;4.97;;
787;SDS011;16074;42.708;23.312;2023-07-29T02:08:51;5.90;;;5.50;;
787;SDS011;16074;42.708;23.312;2023-07-29T02:11:21;6.23;;;5.70;;
787;SDS011;16074;42.708;23.312;2023-07-29T02:13:54;5.93;;;5.53;;
787;SDS011;16074;42.708;23.312;2023-07-29T02:16:22;6.17;;;5.67;;
787;SDS011;16074;42.708;23.312;2023-07-29T02:18:51;5.37;;;4.93;;
787;SDS011;16074;42.708;23.312;2023-07-29T02:21:22;5.67;;;5.20;;
787;SDS011;16074;42.708;23.312;2023-07-29T02:23:50;5.97;;;5.57;;
787;SDS011;16074;42.708;23.312;2023-07-29T02:26:20;5.77;;;5.37;;
787;SDS011;16074;42.708;23.312;2023-07-29T02:28:50;5.20;;;4.80;;
787;SDS011;16074;42.708;23.312;2023-07-29T02:31:20;5.10;;;4.70;;
787;SDS011;16074;42.708;23.312;2023-07-29T02:33:50;5.53;;;5.13;;
787;SDS011;16074;42.708;23.312;2023-07-29T02:36:19;5.90;;;5.50;;
787;SDS011;16074;42.708;23.312;2023-07-29T02:38:47;5.87;;;5.37;;
787;SDS011;16074;42.708;23.312;2023-07-29T02:41:16;5.43;;;5.10;;
787;SDS011;16074;42.708;23.312;2023-07-29T02:43:47;6.00;;;5.60;;
787;SDS011;16074;42.708;23.312;2023-07-29T02:46:17;6.40;;;5.90;;
787;SDS011;16074;42.708;23.312;2023-07-29T02:48:46;6.17;;;5.50;;
787;SDS011;16074;42.708;23.312;2023-07-29T02:51:14;6.43;;;5.93;;
787;SDS011;16074;42.708;23.312;2023-07-29T02:53:42;5.43;;;5.13;;
787;SDS011;16074;42.708;23.312;2023-07-29T02:56:11;7.53;;;6.37;;
787;SDS011;16074;42.708;23.312;2023-07-29T02:58:39;6.00;;;5.40;;
787;SDS011;16074;42.708;23.312;2023-07-29T03:01:09;6.03;;;5.57;;
787;SDS011;16074;42.708;23.312;2023-07-29T03:03:37;5.53;;;5.13;;
787;SDS011;16074;42.708;23.312;2023-07-29T03:06:06;7.13;;;6.60;;
787;SDS011;16074;42.708;23.312;2023-07-29T03:08:35;6.90;;;6.30;;
787;SDS011;16074;42.708;23.312;2023-07-29T03:11:05;5.27;;;4.87;;
787;SDS011;16074;42.708;23.312;2023-07-29T03:13:34;6.10;;;5.60;;
787;SDS011;16074;42.708;23.312;2023-07-29T03:16:06;5.97;;;5.57;;
787;SDS011;16074;42.708;23.312;2023-07-29T03:18:38;6.80;;;6.10;;
787;SDS011;16074;42.708;23.312;2023-07-29T03:21:07;6.13;;;5.53;;
787;SDS011;16074;42.708;23.312;2023-07-29T03:23:37;6.20;;;5.60;;
787;SDS011;16074;42.708;23.312;2023-07-29T03:26:06;6.40;;;5.90;;
787;SDS011;16074;42.708;23.312;2023-07-29T03:28:38;7.57;;;6.97;;
787;SDS011;16074;42.708;23.312;2023-07-29T03:31:07;6.50;;;6.00;;
787;SDS011;16074;42.708;23.312;2023-07-29T03:33:36;6.47;;;5.87;;
787;SDS011;16074;42.708;23.312;2023-07-29T03:36:06;6.37;;;5.87;;
787;SDS011;16074;42.708;23.312;2023-07-29T03:38:34;6.20;;;5.67;;
787;SDS011;16074;42.708;23.312;2023-07-29T03:41:07;7.33;;;6.63;;
787;SDS011;16074;42.708;23.312;2023-07-29T03:43:35;7.23;;;6.57;;
787;SDS011;16074;42.708;23.312;2023-07-29T03:46:04;7.47;;;6.87;;
787;SDS011;16074;42.708;23.312;2023-07-29T03:48:38;7.13;;;6.60;;
787;SDS011;16074;42.708;23.312;2023-07-29T03:51:08;7.10;;;6.50;;
787;SDS011;16074;42.708;23.312;2023-07-29T03:53:36;6.87;;;6.37;;
787;SDS011;16074;42.708;23.312;2023-07-29T03:56:05;5.93;;;5.53;;
787;SDS011;16074;42.708;23.312;2023-07-29T03:58:33;6.50;;;5.87;;
787;SDS011;16074;42.708;23.312;2023-07-29T04:01:01;6.10;;;5.70;;
787;SDS011;16074;42.708;23.312;2023-07-29T04:03:31;6.50;;;5.90;;
787;SDS011;16074;42.708;23.312;2023-07-29T04:06:01;6.50;;;6.00;;
787;SDS011;16074;42.708;23.312;2023-07-29T04:08:31;6.80;;;6.20;;
787;SDS011;16074;42.708;23.312;2023-07-29T04:10:59;7.30;;;6.30;;
787;SDS011;16074;42.708;23.312;2023-07-29T04:13:28;5.90;;;5.30;;
787;SDS011;16074;42.708;23.312;2023-07-29T04:15:56;5.80;;;5.30;;
787;SDS011;16074;42.708;23.312;2023-07-29T04:18:25;6.93;;;6.43;;
787;SDS011;16074;42.708;23.312;2023-07-29T04:20:53;6.47;;;6.07;;
787;SDS011;16074;42.708;23.312;2023-07-29T04:23:21;6.20;;;5.67;;
787;SDS011;16074;42.708;23.312;2023-07-29T04:25:51;6.57;;;6.07;;
787;SDS011;16074;42.708;23.312;2023-07-29T04:28:19;6.50;;;6.00;;
787;SDS011;16074;42.708;23.312;2023-07-29T04:30:48;7.23;;;6.63;;
787;SDS011;16074;42.708;23.312;2023-07-29T04:33:16;5.93;;;5.50;;
787;SDS011;16074;42.708;23.312;2023-07-29T04:35:45;6.67;;;6.17;;
787;SDS011;16074;42.708;23.312;2023-07-29T04:38:13;7.23;;;6.73;;
787;SDS011;16074;42.708;23.312;2023-07-29T04:40:41;6.80;;;6.30;;
787;SDS011;16074;42.708;23.312;2023-07-29T04:43:11;7.50;;;6.90;;
787;SDS011;16074;42.708;23.312;2023-07-29T04:45:42;7.80;;;7.20;;
787;SDS011;16074;42.708;23.312;2023-07-29T04:48:11;8.07;;;7.47;;
787;SDS011;16074;42.708;23.312;2023-07-29T04:50:39;8.83;;;7.17;;
787;SDS011;16074;42.708;23.312;2023-07-29T04:53:08;7.70;;;6.90;;
787;SDS011;16074;42.708;23.312;2023-07-29T04:55:36;8.60;;;7.90;;
787;SDS011;16074;42.708;23.312;2023-07-29T04:58:04;7.70;;;7.10;;
787;SDS011;16074;42.708;23.312;2023-07-29T05:00:34;8.90;;;8.03;;
787;SDS011;16074;42.708;23.312;2023-07-29T05:03:02;8.90;;;8.20;;
787;SDS011;16074;42.708;23.312;2023-07-29T05:05:31;9.00;;;8.20;;
787;SDS011;16074;42.708;23.312;2023-07-29T05:08:00;9.40;;;8.60;;
787;SDS011;16074;42.708;23.312;2023-07-29T05:10:28;7.50;;;7.00;;
787;SDS011;16074;42.708;23.312;2023-07-29T05:12:56;8.80;;;8.00;;
787;SDS011;16074;42.708;23.312;2023-07-29T05:15:25;10.73;;;8.70;;
787;SDS011;16074;42.708;23.312;2023-07-29T05:17:54;8.80;;;8.00;;
787;SDS011;16074;42.708;23.312;2023-07-29T05:20:23;10.00;;;9.00;;
787;SDS011;16074;42.708;23.312;2023-07-29T05:22:51;9.23;;;8.50;;
787;SDS011;16074;42.708;23.312;2023-07-29T05:25:19;10.60;;;8.67;;
787;SDS011;16074;42.708;23.312;2023-07-29T05:27:48;9.67;;;8.67;;
787;SDS011;16074;42.708;23.312;2023-07-29T05:30:16;9.20;;;8.50;;
787;SDS011;16074;42.708;23.312;2023-07-29T05:32:45;9.00;;;8.40;;
787;SDS011;16074;42.708;23.312;2023-07-29T05:35:15;8.90;;;8.20;;
787;SDS011;16074;42.708;23.312;2023-07-29T05:37:43;9.80;;;8.60;;
787;SDS011;16074;42.708;23.312;2023-07-29T05:40:11;7.93;;;6.93;;
787;SDS011;16074;42.708;23.312;2023-07-29T05:42:39;10.50;;;8.07;;
787;SDS011;16074;42.708;23.312;2023-07-29T05:45:09;8.53;;;7.83;;
787;SDS011;16074;42.708;23.312;2023-07-29T05:47:38;10.37;;;7.70;;
787;SDS011;16074;42.708;23.312;2023-07-29T05:50:06;9.60;;;7.00;;
787;SDS011;16074;42.708;23.312;2023-07-29T05:52:37;8.90;;;8.20;;
787;SDS011;16074;42.708;23.312;2023-07-29T05:55:06;11.63;;;8.97;;
787;SDS011;16074;42.708;23.312;2023-07-29T05:57:35;9.13;;;7.77;;
787;SDS011;16074;42.708;23.312;2023-07-29T06:00:06;8.50;;;7.90;;
787;SDS011;16074;42.708;23.312;2023-07-29T06:02:40;9.13;;;8.43;;
787;SDS011;16074;42.708;23.312;2023-07-29T06:05:14;9.10;;;8.30;;
787;SDS011;16074;42.708;23.312;2023-07-29T06:07:44;8.30;;;7.70;;
787;SDS011;16074;42.708;23.312;2023-07-29T06:10:15;12.17;;;8.70;;
787;SDS011;16074;42.708;23.312;2023-07-29T06:12:46;9.43;;;8.53;;
787;SDS011;16074;42.708;23.312;2023-07-29T06:15:15;10.20;;;9.30;;
787;SDS011;16074;42.708;23.312;2023-07-29T06:17:44;10.97;;;10.17;;
787;SDS011;16074;42.708;23.312;2023-07-29T06:20:12;9.23;;;8.53;;
787;SDS011;16074;42.708;23.312;2023-07-29T06:22:41;8.50;;;7.80;;
787;SDS011;16074;42.708;23.312;2023-07-29T06:25:11;10.00;;;8.87;;
787;SDS011;16074;42.708;23.312;2023-07-29T06:27:39;10.90;;;9.80;;
787;SDS011;16074;42.708;23.312;2023-07-29T06:30:08;10.53;;;9.10;;
787;SDS011;16074;42.708;23.312;2023-07-29T06:32:36;9.40;;;8.17;;
787;SDS011;16074;42.708;23.312;2023-07-29T06:35:05;9.20;;;8.13;;
787;SDS011;16074;42.708;23.312;2023-07-29T06:37:34;9.97;;;9.00;;
787;SDS011;16074;42.708;23.312;2023-07-29T06:40:02;8.43;;;7.73;;
787;SDS011;16074;42.708;23.312;2023-07-29T06:42:33;9.07;;;8.27;;
787;SDS011;16074;42.708;23.312;2023-07-29T06:45:02;16.23;;;8.17;;
787;SDS011;16074;42.708;23.312;2023-07-29T06:47:33;9.70;;;7.90;;
787;SDS011;16074;42.708;23.312;2023-07-29T06:50:01;12.57;;;9.97;;
787;SDS011;16074;42.708;23.312;2023-07-29T06:52:29;9.70;;;8.80;;
787;SDS011;16074;42.708;23.312;2023-07-29T06:54:58;9.40;;;8.63;;
787;SDS011;16074;42.708;23.312;2023-07-29T06:57:26;10.20;;;9.40;;
787;SDS011;16074;42.708;23.312;2023-07-29T06:59:56;12.37;;;10.17;;
787;SDS011;16074;42.708;23.312;2023-07-29T07:02:24;12.80;;;9.40;;
787;SDS011;16074;42.708;23.312;2023-07-29T07:04:52;13.23;;;8.90;;
787;SDS011;16074;42.708;23.312;2023-07-29T07:07:21;15.17;;;8.57;;
787;SDS011;16074;42.708;23.312;2023-07-29T07:09:49;12.63;;;8.13;;
787;SDS011;16074;42.708;23.312;2023-07-29T07:12:17;9.40;;;8.50;;
787;SDS011;16074;42.708;23.312;2023-07-29T07:14:46;9.47;;;8.67;;
787;SDS011;16074;42.708;23.312;2023-07-29T07:17:16;14.53;;;9.30;;
787;SDS011;16074;42.708;23.312;2023-07-29T07:19:44;9.03;;;8.40;;
787;SDS011;16074;42.708;23.312;2023-07-29T07:22:13;9.23;;;8.43;;
787;SDS011;16074;42.708;23.312;2023-07-29T07:24:41;8.60;;;7.77;;
787;SDS011;16074;42.708;23.312;2023-07-29T07:27:09;8.97;;;8.27;;
787;SDS011;16074;42.708;23.312;2023-07-29T07:29:38;10.27;;;8.30;;
787;SDS011;16074;42.708;23.312;2023-07-29T07:32:06;8.10;;;7.20;;
787;SDS011;16074;42.708;23.312;2023-07-29T07:34:36;8.07;;;7.30;;
787;SDS011;16074;42.708;23.312;2023-07-29T07:37:04;8.47;;;7.77;;
787;SDS011;16074;42.708;23.312;2023-07-29T07:39:33;7.37;;;6.87;;
787;SDS011;16074;42.708;23.312;2023-07-29T07:42:02;11.53;;;8.00;;
787;SDS011;16074;42.708;23.312;2023-07-29T07:44:30;7.90;;;7.20;;
787;SDS011;16074;42.708;23.312;2023-07-29T07:46:58;7.63;;;7.03;;
787;SDS011;16074;42.708;23.312;2023-07-29T07:49:30;9.57;;;8.63;;
787;SDS011;16074;42.708;23.312;2023-07-29T07:52:00;7.93;;;7.13;;
787;SDS011;16074;42.708;23.312;2023-07-29T07:54:29;9.83;;;7.90;;
787;SDS011;16074;42.708;23.312;2023-07-29T07:56:57;9.37;;;8.43;;
787;SDS011;16074;42.708;23.312;2023-07-29T07:59:25;8.10;;;7.63;;
787;SDS011;16074;42.708;23.312;2023-07-29T08:01:53;9.13;;;7.60;;
787;SDS011;16074;42.708;23.312;2023-07-29T08:04:22;7.90;;;7.37;;
787;SDS011;16074;42.708;23.312;2023-07-29T08:06:50;8.17;;;7.47;;
787;SDS011;16074;42.708;23.312;2023-07-29T08:09:20;11.80;;;7.33;;
787;SDS011;16074;42.708;23.312;2023-07-29T08:11:48;8.30;;;7.50;;
787;SDS011;16074;42.708;23.312;2023-07-29T08:14:16;9.03;;;8.10;;
787;SDS011;16074;42.708;23.312;2023-07-29T08:16:44;8.87;;;8.07;;
787;SDS011;16074;42.708;23.312;2023-07-29T08:19:13;9.00;;;8.40;;
787;SDS011;16074;42.708;23.312;2023-07-29T08:21:41;10.03;;;9.27;;
787;SDS011;16074;42.708;23.312;2023-07-29T08:24:09;8.30;;;7.60;;
787;SDS011;16074;42.708;23.312;2023-07-29T08:26:39;8.77;;;8.07;;
787;SDS011;16074;42.708;23.312;2023-07-29T08:29:07;8.30;;;7.60;;
787;SDS011;16074;42.708;23.312;2023-07-29T08:31:36;7.70;;;7.10;;
787;SDS011;16074;42.708;23.312;2023-07-29T08:34:04;8.20;;;7.50;;
787;SDS011;16074;42.708;23.312;2023-07-29T08:36:33;9.40;;;8.70;;
787;SDS011;16074;42.708;23.312;2023-07-29T08:39:01;7.43;;;6.83;;
787;SDS011;16074;42.708;23.312;2023-07-29T08:41:31;7.90;;;7.40;;
787;SDS011;16074;42.708;23.312;2023-07-29T08:44:09;7.47;;;6.80;;
787;SDS011;16074;42.708;23.312;2023-07-29T08:46:39;7.20;;;6.70;;
787;SDS011;16074;42.708;23.312;2023-07-29T08:49:08;6.83;;;6.43;;
787;SDS011;16074;42.708;23.312;2023-07-29T08:51:41;6.80;;;6.20;;
787;SDS011;16074;42.708;23.312;2023-07-29T08:54:11;6.40;;;6.10;;
787;SDS011;16074;42.708;23.312;2023-07-29T08:56:41;7.30;;;6.70;;
787;SDS011;16074;42.708;23.312;2023-07-29T08:59:11;9.47;;;6.07;;
787;SDS011;16074;42.708;23.312;2023-07-29T09:01:43;9.03;;;6.70;;
787;SDS011;16074;42.708;23.312;2023-07-29T09:04:11;5.00;;;4.80;;
787;SDS011;16074;42.708;23.312;2023-07-29T09:06:40;4.27;;;4.07;;
787;SDS011;16074;42.708;23.312;2023-07-29T09:09:10;4.63;;;4.33;;
787;SDS011;16074;42.708;23.312;2023-07-29T09:11:39;3.80;;;3.60;;
787;SDS011;16074;42.708;23.312;2023-07-29T09:14:08;5.27;;;4.87;;
787;SDS011;16074;42.708;23.312;2023-07-29T09:16:38;4.33;;;3.97;;
787;SDS011;16074;42.708;23.312;2023-07-29T09:19:07;4.37;;;4.07;;
787;SDS011;16074;42.708;23.312;2023-07-29T09:21:38;4.93;;;4.63;;
787;SDS011;16074;42.708;23.312;2023-07-29T09:24:06;3.60;;;3.40;;
787;SDS011;16074;42.708;23.312;2023-07-29T09:26:35;3.43;;;3.33;;
787;SDS011;16074;42.708;23.312;2023-07-29T09:29:04;4.57;;;4.07;;
787;SDS011;16074;42.708;23.312;2023-07-29T09:31:32;4.20;;;3.90;;
787;SDS011;16074;42.708;23.312;2023-07-29T09:34:03;3.70;;;3.50;;
787;SDS011;16074;42.708;23.312;2023-07-29T09:36:33;3.40;;;3.20;;
787;SDS011;16074;42.708;23.312;2023-07-29T09:39:02;3.60;;;3.37;;
787;SDS011;16074;42.708;23.312;2023-07-29T09:41:31;4.07;;;3.77;;
787;SDS011;16074;42.708;23.312;2023-07-29T09:44:00;2.27;;;2.03;;
787;SDS011;16074;42.708;23.312;2023-07-29T09:46:31;2.40;;;2.30;;
787;SDS011;16074;42.708;23.312;2023-07-29T09:49:03;2.97;;;2.87;;
787;SDS011;16074;42.708;23.312;2023-07-29T09:51:33;2.53;;;2.43;;
787;SDS011;16074;42.708;23.312;2023-07-29T09:54:05;3.70;;;3.03;;
787;SDS011;16074;42.708;23.312;2023-07-29T09:56:34;3.00;;;2.80;;
787;SDS011;16074;42.708;23.312;2023-07-29T09:59:08;2.07;;;2.07;;
787;SDS011;16074;42.708;23.312;2023-07-29T10:01:37;2.87;;;2.77;;
787;SDS011;16074;42.708;23.312;2023-07-29T10:04:09;3.03;;;2.87;;
787;SDS011;16074;42.708;23.312;2023-07-29T10:06:39;2.47;;;2.37;;
787;SDS011;16074;42.708;23.312;2023-07-29T10:11:39;3.20;;;3.00;;
787;SDS011;16074;42.708;23.312;2023-07-29T10:14:08;2.33;;;2.23;;
787;SDS011;16074;42.708;23.312;2023-07-29T10:16:36;2.80;;;2.60;;
787;SDS011;16074;42.708;23.312;2023-07-29T10:19:06;2.80;;;2.70;;
787;SDS011;16074;42.708;23.312;2023-07-29T10:21:38;3.10;;;2.90;;
787;SDS011;16074;42.708;23.312;2023-07-29T10:24:09;3.10;;;2.80;;
787;SDS011;16074;42.708;23.312;2023-07-29T10:26:42;4.13;;;2.67;;
787;SDS011;16074;42.708;23.312;2023-07-29T10:29:14;2.50;;;2.40;;
787;SDS011;16074;42.708;23.312;2023-07-29T10:31:46;2.80;;;2.70;;
787;SDS011;16074;42.708;23.312;2023-07-29T10:34:16;3.43;;;3.07;;
787;SDS011;16074;42.708;23.312;2023-07-29T10:36:45;2.37;;;2.37;;
787;SDS011;16074;42.708;23.312;2023-07-29T10:39:14;1.90;;;1.90;;
787;SDS011;16074;42.708;23.312;2023-07-29T10:41:55;2.57;;;2.37;;
787;SDS011;16074;42.708;23.312;2023-07-29T10:47:16;2.00;;;1.90;;
787;SDS011;16074;42.708;23.312;2023-07-29T10:49:48;3.37;;;3.17;;
787;SDS011;16074;42.708;23.312;2023-07-29T10:52:27;2.63;;;2.53;;
787;SDS011;16074;42.708;23.312;2023-07-29T10:54:57;2.43;;;2.43;;
787;SDS011;16074;42.708;23.312;2023-07-29T10:57:33;2.10;;;2.10;;
787;SDS011;16074;42.708;23.312;2023-07-29T11:00:03;2.07;;;2.00;;
787;SDS011;16074;42.708;23.312;2023-07-29T11:02:34;1.90;;;1.80;;
787;SDS011;16074;42.708;23.312;2023-07-29T11:05:06;4.60;;;1.93;;
787;SDS011;16074;42.708;23.312;2023-07-29T11:10:21;2.10;;;1.90;;
787;SDS011;16074;42.708;23.312;2023-07-29T11:12:50;1.77;;;1.77;;
787;SDS011;16074;42.708;23.312;2023-07-29T11:15:21;3.27;;;1.80;;
787;SDS011;16074;42.708;23.312;2023-07-29T11:17:51;2.40;;;2.30;;
787;SDS011;16074;42.708;23.312;2023-07-29T11:20:24;1.50;;;1.50;;
787;SDS011;16074;42.708;23.312;2023-07-29T11:22:54;1.70;;;1.60;;
787;SDS011;16074;42.708;23.312;2023-07-29T11:25:24;1.80;;;1.80;;
787;SDS011;16074;42.708;23.312;2023-07-29T11:27:54;3.20;;;3.00;;
787;SDS011;16074;42.708;23.312;2023-07-29T11:30:23;2.03;;;1.70;;
787;SDS011;16074;42.708;23.312;2023-07-29T11:32:53;1.83;;;1.83;;
787;SDS011;16074;42.708;23.312;2023-07-29T11:35:24;1.93;;;1.93;;
787;SDS011;16074;42.708;23.312;2023-07-29T11:37:53;2.00;;;1.90;;
787;SDS011;16074;42.708;23.312;2023-07-29T11:40:24;2.37;;;2.27;;
787;SDS011;16074;42.708;23.312;2023-07-29T11:42:52;2.37;;;2.30;;
787;SDS011;16074;42.708;23.312;2023-07-29T11:45:22;2.10;;;2.10;;
787;SDS011;16074;42.708;23.312;2023-07-29T11:48:01;2.57;;;2.47;;
787;SDS011;16074;42.708;23.312;2023-07-29T11:50:31;2.27;;;2.17;;
787;SDS011;16074;42.708;23.312;2023-07-29T11:53:00;2.57;;;2.47;;
787;SDS011;16074;42.708;23.312;2023-07-29T11:55:29;2.70;;;2.50;;
787;SDS011;16074;42.708;23.312;2023-07-29T11:57:58;2.30;;;2.20;;
787;SDS011;16074;42.708;23.312;2023-07-29T12:00:26;2.63;;;2.43;;
787;SDS011;16074;42.708;23.312;2023-07-29T12:02:55;2.30;;;2.20;;
787;SDS011;16074;42.708;23.312;2023-07-29T12:05:24;2.67;;;2.47;;
787;SDS011;16074;42.708;23.312;2023-07-29T12:07:54;2.23;;;2.13;;
787;SDS011;16074;42.708;23.312;2023-07-29T12:10:23;2.80;;;2.60;;
787;SDS011;16074;42.708;23.312;2023-07-29T12:12:52;2.67;;;2.50;;
787;SDS011;16074;42.708;23.312;2023-07-29T12:15:24;2.90;;;2.70;;
787;SDS011;16074;42.708;23.312;2023-07-29T12:17:53;2.50;;;2.40;;
787;SDS011;16074;42.708;23.312;2023-07-29T12:20:24;2.10;;;2.00;;
787;SDS011;16074;42.708;23.312;2023-07-29T12:22:56;2.50;;;2.30;;
787;SDS011;16074;42.708;23.312;2023-07-29T12:25:26;4.27;;;2.30;;
787;SDS011;16074;42.708;23.312;2023-07-29T12:27:55;1.90;;;1.80;;
787;SDS011;16074;42.708;23.312;2023-07-29T12:30:23;2.07;;;2.07;;
787;SDS011;16074;42.708;23.312;2023-07-29T12:32:52;2.27;;;2.17;;
787;SDS011;16074;42.708;23.312;2023-07-29T12:35:21;1.57;;;1.57;;
787;SDS011;16074;42.708;23.312;2023-07-29T12:37:59;2.30;;;2.20;;
787;SDS011;16074;42.708;23.312;2023-07-29T12:40:27;1.93;;;1.87;;
787;SDS011;16074;42.708;23.312;2023-07-29T12:42:56;2.57;;;2.43;;
787;SDS011;16074;42.708;23.312;2023-07-29T12:45:24;2.10;;;2.00;;
787;SDS011;16074;42.708;23.312;2023-07-29T12:47:55;2.00;;;1.90;;
787;SDS011;16074;42.708;23.312;2023-07-29T12:50:24;2.03;;;2.00;;
787;SDS011;16074;42.708;23.312;2023-07-29T12:52:53;2.30;;;1.87;;
787;SDS011;16074;42.708;23.312;2023-07-29T12:55:23;2.17;;;2.07;;
787;SDS011;16074;42.708;23.312;2023-07-29T12:57:51;2.93;;;2.73;;
787;SDS011;16074;42.708;23.312;2023-07-29T13:00:20;1.80;;;1.80;;
787;SDS011;16074;42.708;23.312;2023-07-29T13:02:48;2.17;;;2.17;;
787;SDS011;16074;42.708;23.312;2023-07-29T13:05:17;2.47;;;2.37;;
787;SDS011;16074;42.708;23.312;2023-07-29T13:07:45;4.53;;;2.00;;
787;SDS011;16074;42.708;23.312;2023-07-29T13:10:14;2.07;;;1.97;;
787;SDS011;16074;42.708;23.312;2023-07-29T13:12:43;2.00;;;2.00;;
787;SDS011;16074;42.708;23.312;2023-07-29T13:15:12;2.03;;;1.87;;
787;SDS011;16074;42.708;23.312;2023-07-29T13:17:40;2.77;;;2.60;;
787;SDS011;16074;42.708;23.312;2023-07-29T13:20:08;1.80;;;1.70;;
787;SDS011;16074;42.708;23.312;2023-07-29T13:22:37;2.20;;;2.10;;
787;SDS011;16074;42.708;23.312;2023-07-29T13:25:05;2.37;;;2.20;;
787;SDS011;16074;42.708;23.312;2023-07-29T13:27:34;2.37;;;2.17;;
787;SDS011;16074;42.708;23.312;2023-07-29T13:30:05;2.37;;;2.27;;
787;SDS011;16074;42.708;23.312;2023-07-29T13:32:34;2.37;;;2.27;;
787;SDS011;16074;42.708;23.312;2023-07-29T13:35:03;2.00;;;2.00;;
787;SDS011;16074;42.708;23.312;2023-07-29T13:37:31;2.73;;;2.53;;
787;SDS011;16074;42.708;23.312;2023-07-29T13:40:00;4.37;;;2.80;;
787;SDS011;16074;42.708;23.312;2023-07-29T13:42:28;2.13;;;2.03;;
787;SDS011;16074;42.708;23.312;2023-07-29T13:44:56;2.50;;;2.30;;
787;SDS011;16074;42.708;23.312;2023-07-29T13:47:26;2.33;;;2.07;;
787;SDS011;16074;42.708;23.312;2023-07-29T13:49:54;2.77;;;2.57;;
787;SDS011;16074;42.708;23.312;2023-07-29T13:52:23;2.10;;;1.93;;
787;SDS011;16074;42.708;23.312;2023-07-29T13:54:51;2.30;;;2.20;;
787;SDS011;16074;42.708;23.312;2023-07-29T13:57:20;2.07;;;2.00;;
787;SDS011;16074;42.708;23.312;2023-07-29T13:59:48;2.50;;;2.30;;
787;SDS011;16074;42.708;23.312;2023-07-29T14:02:16;2.67;;;2.57;;
787;SDS011;16074;42.708;23.312;2023-07-29T14:04:46;2.83;;;2.70;;
787;SDS011;16074;42.708;23.312;2023-07-29T14:07:15;2.60;;;2.50;;
787;SDS011;16074;42.708;23.312;2023-07-29T14:09:43;2.60;;;2.50;;
787;SDS011;16074;42.708;23.312;2023-07-29T14:12:11;2.83;;;2.73;;
787;SDS011;16074;42.708;23.312;2023-07-29T14:14:42;3.00;;;2.90;;
787;SDS011;16074;42.708;23.312;2023-07-29T14:17:10;2.50;;;2.40;;
787;SDS011;16074;42.708;23.312;2023-07-29T14:19:38;3.43;;;3.10;;
787;SDS011;16074;42.708;23.312;2023-07-29T14:22:08;2.60;;;2.50;;
787;SDS011;16074;42.708;23.312;2023-07-29T14:24:37;3.00;;;2.90;;
787;SDS011;16074;42.708;23.312;2023-07-29T14:27:05;3.30;;;3.00;;
787;SDS011;16074;42.708;23.312;2023-07-29T14:29:33;2.90;;;2.90;;
787;SDS011;16074;42.708;23.312;2023-07-29T14:32:02;2.80;;;2.70;;
787;SDS011;16074;42.708;23.312;2023-07-29T14:34:31;3.57;;;2.97;;
787;SDS011;16074;42.708;23.312;2023-07-29T14:36:59;2.30;;;2.30;;
787;SDS011;16074;42.708;23.312;2023-07-29T14:39:29;3.00;;;2.90;;
787;SDS011;16074;42.708;23.312;2023-07-29T14:41:57;2.57;;;2.47;;
787;SDS011;16074;42.708;23.312;2023-07-29T14:44:25;2.87;;;2.77;;
787;SDS011;16074;42.708;23.312;2023-07-29T14:46:54;2.70;;;2.60;;
787;SDS011;16074;42.708;23.312;2023-07-29T14:49:22;2.60;;;2.50;;
787;SDS011;16074;42.708;23.312;2023-07-29T14:51:50;2.80;;;2.70;;
787;SDS011;16074;42.708;23.312;2023-07-29T14:54:19;2.57;;;2.37;;
787;SDS011;16074;42.708;23.312;2023-07-29T14:56:49;2.87;;;2.77;;
787;SDS011;16074;42.708;23.312;2023-07-29T14:59:17;2.83;;;2.73;;
787;SDS011;16074;42.708;23.312;2023-07-29T15:01:45;2.57;;;2.47;;
787;SDS011;16074;42.708;23.312;2023-07-29T15:04:13;2.67;;;2.57;;
787;SDS011;16074;42.708;23.312;2023-07-29T15:06:43;2.60;;;2.50;;
787;SDS011;16074;42.708;23.312;2023-07-29T15:09:11;3.00;;;2.80;;
787;SDS011;16074;42.708;23.312;2023-07-29T15:11:39;2.80;;;2.70;;
787;SDS011;16074;42.708;23.312;2023-07-29T15:14:09;2.50;;;2.40;;
787;SDS011;16074;42.708;23.312;2023-07-29T15:16:38;2.60;;;2.60;;
787;SDS011;16074;42.708;23.312;2023-07-29T15:19:07;2.50;;;2.50;;
787;SDS011;16074;42.708;23.312;2023-07-29T15:21:35;3.13;;;3.03;;